createdAt,value
2022-12-23T00:00:11.403Z,100092.38
2022-12-23T00:02:38.620Z,100090.25
2022-12-23T00:05:06.451Z,100095.47
2022-12-23T00:07:33.125Z,100085.34
2022-12-23T00:09:59.764Z,100091.63
2022-12-23T00:12:45.019Z,100093.31
2022-12-23T00:15:12.626Z,100091.97
2022-12-23T00:17:44.952Z,100103.69
2022-12-23T00:20:14.635Z,100095.69
2022-12-23T00:23:00.406Z,100094.00
2022-12-23T00:25:42.207Z,100090.00
2022-12-23T00:28:20.814Z,100092.03
2022-12-23T00:31:02.485Z,100092.38
2022-12-23T00:33:31.883Z,100091.50
2022-12-23T00:35:58.633Z,100090.66
2022-12-23T00:38:44.118Z,100091.09
2022-12-23T00:41:31.447Z,100083.50
2022-12-23T00:43:58.642Z,100079.44
2022-12-23T00:46:25.436Z,100079.66
2022-12-23T00:49:10.653Z,100078.25
2022-12-23T00:51:37.178Z,100070.47
2022-12-23T00:54:04.210Z,100082.19
2022-12-23T00:56:33.749Z,100073.56
2022-12-23T00:59:00.701Z,100082.59
2022-12-23T01:01:46.188Z,100079.16
2022-12-23T01:04:49.640Z,100086.31
2022-12-23T01:07:16.284Z,100080.78
2022-12-23T01:09:42.932Z,100069.94
2022-12-23T01:12:09.502Z,100060.66
2022-12-23T01:14:36.534Z,100060.22
2022-12-23T01:17:03.563Z,100064.50
2022-12-23T01:19:30.238Z,100059.06
2022-12-23T01:21:56.791Z,100051.00
2022-12-23T01:24:23.557Z,100058.97
2022-12-23T01:26:50.113Z,100059.06
2022-12-23T01:29:16.658Z,100045.84
2022-12-23T01:31:43.267Z,100046.91
2022-12-23T01:34:10.523Z,100050.44
2022-12-23T01:36:37.540Z,100055.78
2022-12-23T01:39:04.327Z,100043.50
2022-12-23T01:41:51.773Z,100045.44
2022-12-23T01:44:46.012Z,100044.56
2022-12-23T01:47:18.906Z,100034.88
2022-12-23T01:49:46.459Z,100035.84
2022-12-23T01:52:14.302Z,100040.41
2022-12-23T01:54:41.586Z,100034.34
2022-12-23T01:57:08.212Z,100024.63
2022-12-23T01:59:53.533Z,100029.97
2022-12-23T02:02:40.073Z,100026.66
2022-12-23T02:05:08.309Z,100033.06
2022-12-23T02:07:54.481Z,100019.00
2022-12-23T02:10:26.795Z,100022.72
2022-12-23T02:13:11.472Z,100016.53
2022-12-23T02:16:13.913Z,100009.69
2022-12-23T02:18:55.447Z,100002.22
2022-12-23T02:21:40.704Z,100008.91
2022-12-23T02:24:31.357Z,100009.56
2022-12-23T02:27:13.131Z,100010.16
2022-12-23T02:29:51.544Z,100014.19
2022-12-23T02:32:27.350Z,100013.72
2022-12-23T02:35:25.400Z,100010.41
2022-12-23T02:38:04.042Z,100001.78
2022-12-23T02:40:51.583Z,100004.63
2022-12-23T02:43:47.526Z,100006.34
2022-12-23T02:46:28.237Z,100015.25
2022-12-23T02:49:03.359Z,100023.16
2022-12-23T02:51:36.632Z,100027.81
2022-12-23T02:54:08.735Z,100016.53
2022-12-23T02:56:37.452Z,100017.50
2022-12-23T02:59:12.232Z,100020.97
2022-12-23T03:01:41.415Z,100017.50
2022-12-23T03:04:08.912Z,100020.06
2022-12-23T03:06:40.598Z,100025.25
2022-12-23T03:09:07.497Z,100030.69
2022-12-23T03:11:52.920Z,100024.50
2022-12-23T03:14:41.363Z,100017.28
2022-12-23T03:17:10.876Z,100013.97
2022-12-23T03:19:45.270Z,100021.75
2022-12-23T03:22:29.843Z,100019.84
2022-12-23T03:25:05.825Z,100011.75
2022-12-23T03:27:48.515Z,100018.78
2022-12-23T03:30:18.656Z,100012.50
2022-12-23T03:32:49.819Z,100011.47
2022-12-23T03:35:20.248Z,100009.66
2022-12-23T03:37:50.918Z,100018.28
2022-12-23T03:40:28.173Z,100006.59
2022-12-23T03:43:02.190Z,99999.84
2022-12-23T03:45:40.309Z,100017.75
2022-12-23T03:48:18.991Z,100005.56
2022-12-23T03:50:48.665Z,100002.91
2022-12-23T03:53:38.097Z,100001.13
2022-12-23T03:56:17.119Z,100003.69
2022-12-23T03:58:51.272Z,100004.75
2022-12-23T04:01:42.557Z,100008.25
2022-12-23T04:04:24.200Z,100005.69
2022-12-23T04:07:22.811Z,99999.69
2022-12-23T04:09:52.568Z,100006.06
2022-12-23T04:12:21.410Z,100001.72
2022-12-23T04:14:49.286Z,99989.47
2022-12-23T04:17:17.348Z,99989.69
2022-12-23T04:19:48.154Z,99982.75
2022-12-23T04:22:16.046Z,99988.06
2022-12-23T04:24:43.500Z,99986.47
2022-12-23T04:27:13.086Z,99988.56
2022-12-23T04:29:39.753Z,99996.88
2022-12-23T04:32:07.605Z,99998.50
2022-12-23T04:34:34.357Z,99994.13
2022-12-23T04:37:01.135Z,99996.13
2022-12-23T04:39:27.900Z,100001.75
2022-12-23T04:41:54.689Z,100006.13
2022-12-23T04:44:21.305Z,100001.53
2022-12-23T04:46:47.926Z,100007.00
2022-12-23T04:49:14.525Z,100008.97
2022-12-23T04:51:41.064Z,100002.59
2022-12-23T04:54:07.678Z,100007.66
2022-12-23T04:56:34.204Z,99998.41
2022-12-23T04:59:02.372Z,100006.47
2022-12-23T05:01:29.765Z,100000.63
2022-12-23T05:03:56.461Z,100003.56
2022-12-23T05:06:23.091Z,99988.56
2022-12-23T05:08:49.712Z,99990.75
2022-12-23T05:11:16.242Z,99999.69
2022-12-23T05:13:42.913Z,99996.06
2022-12-23T05:16:09.573Z,99993.41
2022-12-23T05:18:36.144Z,99994.75
2022-12-23T05:21:02.770Z,99989.00
2022-12-23T05:23:29.363Z,99991.84
2022-12-23T05:25:55.995Z,99997.34
2022-12-23T05:28:23.492Z,99989.56
2022-12-23T05:30:57.000Z,99993.34
2022-12-23T05:33:23.603Z,99995.34
2022-12-23T05:35:50.272Z,99998.22
2022-12-23T05:38:16.810Z,99986.81
2022-12-23T05:40:43.340Z,99985.31
2022-12-23T05:43:09.932Z,99990.72
2022-12-23T05:45:36.757Z,99996.34
2022-12-23T05:48:03.404Z,100014.94
2022-12-23T05:50:30.060Z,100034.00
2022-12-23T05:52:57.718Z,100015.47
2022-12-23T05:55:26.235Z,100021.97
2022-12-23T05:57:53.088Z,100023.00
2022-12-23T06:00:20.552Z,100020.34
2022-12-23T06:02:53.296Z,100017.94
2022-12-23T06:05:20.570Z,100016.16
2022-12-23T06:07:47.124Z,100016.06
2022-12-23T06:10:13.700Z,100003.91
2022-12-23T06:12:40.284Z,100006.94
2022-12-23T06:15:07.703Z,100015.00
2022-12-23T06:17:34.312Z,100017.94
2022-12-23T06:20:01.050Z,100015.47
2022-12-23T06:22:27.655Z,100006.75
2022-12-23T06:24:54.245Z,100004.09
2022-12-23T06:27:20.878Z,100014.91
2022-12-23T06:29:48.092Z,100023.81
2022-12-23T06:32:14.962Z,100014.13
2022-12-23T06:34:41.669Z,100003.72
2022-12-23T06:37:08.400Z,99994.97
2022-12-23T06:39:35.440Z,99991.56
2022-12-23T06:42:03.270Z,100001.31
2022-12-23T06:44:29.910Z,100007.66
2022-12-23T06:46:56.486Z,100017.38
2022-12-23T06:49:23.025Z,100020.88
2022-12-23T06:51:49.616Z,100024.31
2022-12-23T06:54:16.169Z,100032.28
2022-12-23T06:56:42.948Z,100032.16
2022-12-23T06:59:09.491Z,100033.88
2022-12-23T07:01:36.163Z,100051.63
2022-12-23T07:04:03.159Z,100071.53
2022-12-23T07:06:29.846Z,100074.59
2022-12-23T07:08:56.419Z,100070.13
2022-12-23T07:11:22.980Z,100076.31
2022-12-23T07:13:49.684Z,100088.09
2022-12-23T07:16:16.291Z,100084.75
2022-12-23T07:18:42.982Z,100071.94
2022-12-23T07:21:19.718Z,100081.88
2022-12-23T07:23:51.325Z,100056.63
2022-12-23T07:26:17.913Z,100062.16
2022-12-23T07:28:48.752Z,100046.38
2022-12-23T07:31:15.771Z,100039.38
2022-12-23T07:33:42.560Z,100032.34
2022-12-23T07:36:09.548Z,100038.50
2022-12-23T07:38:36.372Z,100035.09
2022-12-23T07:41:03.183Z,100033.31
2022-12-23T07:43:29.840Z,100041.28
2022-12-23T07:46:00.470Z,100040.41
2022-12-23T07:48:27.512Z,100040.50
2022-12-23T07:51:00.634Z,100032.53
2022-12-23T07:53:27.279Z,100033.38
2022-12-23T07:55:56.822Z,100033.38
2022-12-23T07:58:24.202Z,100029.78
2022-12-23T08:00:50.777Z,100024.56
2022-12-23T08:03:17.827Z,100026.38
2022-12-23T08:05:44.537Z,100022.75
2022-12-23T08:08:11.152Z,100024.31
2022-12-23T08:10:41.433Z,100021.34
2022-12-23T08:13:11.183Z,100025.53
2022-12-23T08:15:37.767Z,100032.34
2022-12-23T08:18:04.437Z,100038.53
2022-12-23T08:20:31.011Z,100024.22
2022-12-23T08:22:57.556Z,100022.97
2022-12-23T08:25:24.133Z,100020.16
2022-12-23T08:27:51.392Z,100010.66
2022-12-23T08:30:18.913Z,100010.66
2022-12-23T08:32:45.499Z,100005.41
2022-12-23T08:35:12.103Z,100013.50
2022-12-23T08:37:38.754Z,100017.88
2022-12-23T08:40:05.962Z,100029.63
2022-12-23T08:42:32.552Z,100030.56
2022-12-23T08:45:00.057Z,100028.66
2022-12-23T08:47:26.644Z,100012.63
2022-12-23T08:49:53.246Z,100012.56
2022-12-23T08:52:22.147Z,100003.63
2022-12-23T08:54:48.719Z,99984.06
2022-12-23T08:57:15.293Z,99975.94
2022-12-23T08:59:42.097Z,99972.13
2022-12-23T09:02:11.790Z,99987.13
2022-12-23T09:04:38.477Z,99975.72
2022-12-23T09:07:05.983Z,99982.56
2022-12-23T09:09:32.595Z,99981.44
2022-12-23T09:11:59.168Z,99979.22
2022-12-23T09:14:25.751Z,99986.16
2022-12-23T09:16:52.621Z,99974.88
2022-12-23T09:19:20.495Z,99990.16
2022-12-23T09:21:48.199Z,99995.47
2022-12-23T09:24:14.828Z,100002.78
2022-12-23T09:26:41.437Z,100001.91
2022-12-23T09:29:08.013Z,100002.00
2022-12-23T09:31:37.731Z,100003.91
2022-12-23T09:34:05.500Z,99996.03
2022-12-23T09:36:32.198Z,99996.97
2022-12-23T09:38:59.280Z,99978.38
2022-12-23T09:41:48.421Z,99977.44
2022-12-23T09:44:41.762Z,99982.56
2022-12-23T09:47:15.705Z,99974.38
2022-12-23T09:50:00.601Z,99963.59
2022-12-23T09:52:45.928Z,99978.28
2022-12-23T09:55:15.304Z,99988.38
2022-12-23T09:58:09.075Z,99978.09
2022-12-23T10:00:42.800Z,99975.63
2022-12-23T10:03:15.440Z,99965.88
2022-12-23T10:05:57.178Z,99971.19
2022-12-23T10:08:44.563Z,99960.44
2022-12-23T10:11:21.208Z,99950.88
2022-12-23T10:13:52.410Z,99949.38
2022-12-23T10:16:25.787Z,99946.06
2022-12-23T10:19:01.624Z,99946.81
2022-12-23T10:21:52.466Z,99951.81
2022-12-23T10:24:24.240Z,99949.06
2022-12-23T10:26:58.093Z,99934.16
2022-12-23T10:29:27.029Z,99934.09
2022-12-23T10:32:17.585Z,99928.94
2022-12-23T10:35:13.519Z,99918.16
2022-12-23T10:38:17.572Z,99913.66
2022-12-23T10:40:45.437Z,99918.06
2022-12-23T10:43:18.035Z,99910.09
2022-12-23T10:46:10.430Z,99917.84
2022-12-23T10:48:36.953Z,99903.41
2022-12-23T10:51:12.912Z,99906.09
2022-12-23T10:53:47.631Z,99897.81
2022-12-23T10:56:15.104Z,99897.63
2022-12-23T10:58:44.876Z,99901.03
2022-12-23T11:01:25.726Z,99900.06
2022-12-23T11:04:32.496Z,99914.88
2022-12-23T11:07:26.467Z,99907.56
2022-12-23T11:10:08.086Z,99913.53
2022-12-23T11:12:47.453Z,99900.97
2022-12-23T11:15:37.818Z,99903.34
2022-12-23T11:18:18.403Z,99901.53
2022-12-23T11:21:01.282Z,99896.22
2022-12-23T11:23:36.884Z,99892.16
2022-12-23T11:26:10.050Z,99887.59
2022-12-23T11:28:40.092Z,99885.69
2022-12-23T11:31:12.284Z,99879.44
2022-12-23T11:33:46.479Z,99889.00
2022-12-23T11:36:12.988Z,99879.13
2022-12-23T11:39:17.858Z,99892.31
2022-12-23T11:41:50.333Z,99893.16
2022-12-23T11:44:26.034Z,99898.28
2022-12-23T11:46:52.790Z,99896.47
2022-12-23T11:49:29.211Z,99898.19
2022-12-23T11:52:12.046Z,99903.28
2022-12-23T11:54:39.183Z,99897.88
2022-12-23T11:57:19.004Z,99904.72
2022-12-23T11:59:52.828Z,99898.22
2022-12-23T12:02:40.744Z,99905.06
2022-12-23T12:05:22.680Z,99904.00
2022-12-23T12:07:51.301Z,99896.75
2022-12-23T12:10:28.170Z,99914.97
2022-12-23T12:13:26.673Z,99904.97
2022-12-23T12:16:07.798Z,99900.34
2022-12-23T12:18:35.309Z,99906.16
2022-12-23T12:21:07.387Z,99920.03
2022-12-23T12:23:39.688Z,99918.13
2022-12-23T12:26:13.733Z,99909.09
2022-12-23T12:28:43.463Z,99913.34
2022-12-23T12:31:17.917Z,99914.00
2022-12-23T12:33:54.102Z,99911.34
2022-12-23T12:36:39.288Z,99912.94
2022-12-23T12:39:17.297Z,99904.00
2022-12-23T12:42:01.784Z,99903.03
2022-12-23T12:44:46.228Z,99900.16
2022-12-23T12:47:52.120Z,99901.75
2022-12-23T12:50:19.329Z,99899.09
2022-12-23T12:52:45.965Z,99903.47
2022-12-23T12:55:28.700Z,99908.69
2022-12-23T12:57:55.530Z,99903.34
2022-12-23T13:00:24.303Z,99904.31
2022-12-23T13:03:15.441Z,99905.28
2022-12-23T13:06:15.216Z,99901.88
2022-12-23T13:09:00.306Z,99911.66
2022-12-23T13:11:49.811Z,99905.28
2022-12-23T13:14:34.683Z,99909.53
2022-12-23T13:17:20.879Z,99904.94
2022-12-23T13:20:25.250Z,99911.03
2022-12-23T13:23:06.355Z,99907.31
2022-12-23T13:25:49.902Z,99913.38
2022-12-23T13:28:41.899Z,99891.03
2022-12-23T13:31:35.615Z,99902.41
2022-12-23T13:34:21.477Z,99897.84
2022-12-23T13:36:57.192Z,99896.13
2022-12-23T13:39:29.760Z,99903.03
2022-12-23T13:42:05.087Z,99900.28
2022-12-23T13:44:35.096Z,99905.50
2022-12-23T13:47:23.281Z,99900.94
2022-12-23T13:50:08.312Z,99902.63
2022-12-23T13:53:00.367Z,99909.69
2022-12-23T13:56:08.179Z,99905.19
2022-12-23T13:58:35.512Z,99893.47
2022-12-23T14:01:31.863Z,99893.38
2022-12-23T14:04:56.438Z,99894.09
2022-12-23T14:07:23.753Z,99904.75
2022-12-23T14:09:59.443Z,99907.53
2022-12-23T14:12:34.401Z,99913.72
2022-12-23T14:15:31.949Z,99913.50
2022-12-23T14:18:09.820Z,99910.94
2022-12-23T14:20:45.306Z,99905.53
2022-12-23T14:23:33.423Z,99913.63
2022-12-23T14:26:06.071Z,99905.63
2022-12-23T14:29:02.980Z,99916.19
2022-12-23T14:31:31.346Z,99911.69
2022-12-23T14:34:31.289Z,99911.69
2022-12-23T14:37:15.890Z,99919.91
2022-12-23T14:39:43.439Z,99920.00
2022-12-23T14:42:14.966Z,99928.00
2022-12-23T14:44:46.374Z,99922.66
2022-12-23T14:47:36.082Z,99919.03
2022-12-23T14:50:37.017Z,99925.97
2022-12-23T14:53:29.509Z,99920.53
2022-12-23T14:56:08.162Z,99912.56
2022-12-23T14:58:45.424Z,99913.38
2022-12-23T15:01:23.946Z,99917.78
2022-12-23T15:03:57.568Z,99926.59
2022-12-23T15:06:43.259Z,99934.59
2022-12-23T15:09:20.336Z,99933.75
2022-12-23T15:11:47.260Z,99938.13
2022-12-23T15:14:23.425Z,99946.94
2022-12-23T15:16:50.048Z,99938.97
2022-12-23T15:19:23.545Z,99940.78
2022-12-23T15:21:59.613Z,99945.16
2022-12-23T15:24:29.860Z,99968.16
2022-12-23T15:27:26.093Z,99967.28
2022-12-23T15:29:49.500Z,99964.63
2022-12-23T15:32:19.233Z,99949.63
2022-12-23T15:34:48.246Z,99955.81
2022-12-23T15:37:24.731Z,99947.81
2022-12-23T15:39:57.225Z,99945.97
2022-12-23T15:42:38.526Z,99950.47
2022-12-23T15:45:26.047Z,99941.75
2022-12-23T15:47:52.754Z,99939.09
2022-12-23T15:50:19.733Z,99930.13
2022-12-23T15:52:48.895Z,99915.94
2022-12-23T15:55:27.806Z,99915.94
2022-12-23T15:57:54.915Z,99933.75
2022-12-23T16:00:50.948Z,99942.47
2022-12-23T16:03:25.506Z,99928.31
2022-12-23T16:05:52.745Z,99930.00
2022-12-23T16:08:30.114Z,99943.31
2022-12-23T16:11:17.847Z,99940.56
2022-12-23T16:13:58.319Z,99943.31
2022-12-23T16:16:41.305Z,99932.66
2022-12-23T16:19:37.577Z,99933.44
2022-12-23T16:22:28.493Z,99946.75
2022-12-23T16:25:10.096Z,99933.34
2022-12-23T16:27:40.154Z,99934.06
2022-12-23T16:30:34.331Z,99934.94
2022-12-23T16:33:06.974Z,99934.06
2022-12-23T16:35:42.872Z,99939.41
2022-12-23T16:38:22.996Z,99935.78
2022-12-23T16:40:51.956Z,99938.44
2022-12-23T16:43:19.412Z,99941.09
2022-12-23T16:45:50.063Z,99934.81
2022-12-23T16:48:24.418Z,99929.38
2022-12-23T16:50:52.492Z,99924.16
2022-12-23T16:53:19.493Z,99917.03
2022-12-23T16:55:52.352Z,99925.84
2022-12-23T16:58:23.471Z,99922.34
2022-12-23T17:00:51.624Z,99915.94
2022-12-23T17:03:19.360Z,99918.63
2022-12-23T17:05:47.163Z,99917.66
2022-12-23T17:08:13.875Z,99910.81
2022-12-23T17:10:42.200Z,99917.13
2022-12-23T17:13:11.913Z,99919.16
2022-12-23T17:15:38.769Z,99914.69
2022-12-23T17:18:12.629Z,99915.75
2022-12-23T17:20:39.373Z,99913.19
2022-12-23T17:23:06.727Z,99910.63
2022-12-23T17:25:33.320Z,99908.69
2022-12-23T17:27:59.887Z,99906.03
2022-12-23T17:30:26.500Z,99920.22
2022-12-23T17:32:58.293Z,99914.03
2022-12-23T17:35:26.839Z,99921.91
2022-12-23T17:37:53.702Z,99916.59
2022-12-23T17:40:20.510Z,99918.28
2022-12-23T17:42:47.774Z,99926.19
2022-12-23T17:45:27.701Z,99915.63
2022-12-23T17:47:54.724Z,99918.28
2022-12-23T17:50:22.266Z,99922.69
2022-12-23T17:52:49.349Z,99920.22
2022-12-23T17:55:19.572Z,99917.78
2022-12-23T17:57:48.053Z,99915.13
2022-12-23T18:00:25.175Z,99918.84
2022-12-23T18:02:56.337Z,99915.41
2022-12-23T18:05:31.387Z,99910.09
2022-12-23T18:08:00.683Z,99911.06
2022-12-23T18:10:30.767Z,99902.97
2022-12-23T18:13:04.892Z,99897.63
2022-12-23T18:15:40.698Z,99899.34
2022-12-23T18:18:20.456Z,99904.47
2022-12-23T18:20:52.851Z,99900.84
2022-12-23T18:23:25.006Z,99898.03
2022-12-23T18:25:51.665Z,99905.19
2022-12-23T18:28:18.245Z,99902.53
2022-12-23T18:30:45.038Z,99902.72
2022-12-23T18:33:13.274Z,99913.38
2022-12-23T18:35:44.055Z,99909.78
2022-12-23T18:38:11.912Z,99916.19
2022-12-23T18:40:40.094Z,99901.25
2022-12-23T18:43:07.127Z,99912.97
2022-12-23T18:45:46.556Z,99920.97
2022-12-23T18:48:15.799Z,99910.31
2022-12-23T18:50:44.396Z,99907.84
2022-12-23T18:53:23.328Z,99906.16
2022-12-23T18:55:51.888Z,99908.81
2022-12-23T18:58:19.085Z,99911.47
2022-12-23T19:00:47.026Z,99914.13
2022-12-23T19:03:30.247Z,99922.88
2022-12-23T19:06:01.773Z,99921.38
2022-12-23T19:08:28.349Z,99915.31
2022-12-23T19:10:55.736Z,99934.81
2022-12-23T19:13:22.586Z,99936.50
2022-12-23T19:15:49.470Z,99930.22
2022-12-23T19:18:18.588Z,99918.50
2022-12-23T19:20:46.299Z,99930.97
2022-12-23T19:23:13.908Z,99942.56
2022-12-23T19:25:42.474Z,99956.75
2022-12-23T19:28:09.703Z,99948.75
2022-12-23T19:30:36.601Z,99956.84
2022-12-23T19:33:03.255Z,99948.03
2022-12-23T19:35:29.881Z,99948.94
2022-12-23T19:37:58.783Z,99946.19
2022-12-23T19:40:25.421Z,99953.22
2022-12-23T19:42:51.957Z,99956.84
2022-12-23T19:45:18.581Z,99959.41
2022-12-23T19:47:45.144Z,99952.38
2022-12-23T19:50:12.458Z,99955.25
2022-12-23T19:52:39.070Z,99953.53
2022-12-23T19:55:06.066Z,99961.44
2022-12-23T19:57:33.423Z,99956.31
2022-12-23T20:00:01.830Z,99963.47
2022-12-23T20:02:28.753Z,99964.41
2022-12-23T20:04:55.342Z,99973.34
2022-12-23T20:07:21.960Z,99978.66
2022-12-23T20:09:48.548Z,99981.31
2022-12-23T20:12:15.233Z,99983.91
2022-12-23T20:14:41.814Z,99981.22
2022-12-23T20:17:08.375Z,99974.31
2022-12-23T20:19:39.142Z,99972.69
2022-12-23T20:22:10.378Z,99961.09
2022-12-23T20:24:37.177Z,99966.53
2022-12-23T20:27:07.941Z,99958.66
2022-12-23T20:29:38.170Z,99946.94
2022-12-23T20:32:04.951Z,99942.44
2022-12-23T20:34:36.668Z,99938.84
2022-12-23T20:37:06.475Z,99942.25
2022-12-23T20:39:33.278Z,99936.81
2022-12-23T20:41:59.869Z,99932.34
2022-12-23T20:44:35.805Z,99913.81
2022-12-23T20:47:05.567Z,99927.34
2022-12-23T20:49:33.842Z,99903.59
2022-12-23T20:52:00.664Z,99910.63
2022-12-23T20:54:32.538Z,99909.56
2022-12-23T20:56:59.583Z,99914.97
2022-12-23T20:59:26.165Z,99899.09
2022-12-23T21:01:52.870Z,99906.88
2022-12-23T21:04:20.511Z,99909.31
2022-12-23T21:06:47.166Z,99918.06
2022-12-23T21:09:15.574Z,99912.66
2022-12-23T21:11:45.230Z,99916.38
2022-12-23T21:14:13.170Z,99915.50
2022-12-23T21:16:40.408Z,99918.91
2022-12-23T21:19:09.390Z,99930.09
2022-12-23T21:21:35.974Z,99923.81
2022-12-23T21:24:04.773Z,99904.25
2022-12-23T21:26:33.774Z,99897.94
2022-12-23T21:29:02.010Z,99884.75
2022-12-23T21:31:30.417Z,99897.09
2022-12-23T21:33:58.671Z,99890.06
2022-12-23T21:36:27.780Z,99897.19
2022-12-23T21:38:54.795Z,99887.63
2022-12-23T21:41:28.496Z,99883.22
2022-12-23T21:43:59.748Z,99885.91
2022-12-23T21:46:27.702Z,99891.13
2022-12-23T21:48:55.776Z,99882.16
2022-12-23T21:51:41.897Z,99879.63
2022-12-23T21:54:10.857Z,99872.47
2022-12-23T21:56:37.962Z,99869.09
2022-12-23T21:59:08.402Z,99870.78
2022-12-23T22:01:35.266Z,99888.47
2022-12-23T22:04:02.349Z,99879.75
2022-12-23T22:06:36.551Z,99857.56
2022-12-23T22:09:05.132Z,99849.69
2022-12-23T22:11:33.674Z,99848.84
2022-12-23T22:14:02.238Z,99839.91
2022-12-23T22:16:30.793Z,99838.09
2022-12-23T22:18:59.293Z,99822.00
2022-12-23T22:21:27.699Z,99819.34
2022-12-23T22:23:55.396Z,99811.34
2022-12-23T22:26:27.404Z,99796.34
2022-12-23T22:28:59.350Z,99797.94
2022-12-23T22:31:36.709Z,99792.50
2022-12-23T22:34:04.645Z,99802.09
2022-12-23T22:36:31.491Z,99794.94
2022-12-23T22:38:59.845Z,99789.75
2022-12-23T22:41:30.497Z,99796.00
2022-12-23T22:43:58.165Z,99799.53
2022-12-23T22:46:26.046Z,99798.66
2022-12-23T22:48:53.451Z,99793.56
2022-12-23T22:51:23.247Z,99792.84
2022-12-23T22:53:50.007Z,99784.09
2022-12-23T22:56:17.994Z,99784.97
2022-12-23T22:58:44.620Z,99777.06
2022-12-23T23:01:32.273Z,99783.13
2022-12-23T23:04:01.107Z,99780.38
2022-12-23T23:06:39.399Z,99778.56
2022-12-23T23:09:08.217Z,99780.28
2022-12-23T23:11:35.099Z,99780.47
2022-12-23T23:14:01.872Z,99790.91
2022-12-23T23:16:28.562Z,99795.28
2022-12-23T23:18:55.312Z,99793.56
2022-12-23T23:21:22.387Z,99791.00
2022-12-23T23:23:49.845Z,99780.91
2022-12-23T23:26:17.420Z,99777.41
2022-12-23T23:28:44.501Z,99786.22
2022-12-23T23:33:58.804Z,99787.09
2022-12-23T23:36:25.487Z,99792.31
2022-12-23T23:38:52.241Z,99786.13
2022-12-23T23:41:22.901Z,99778.88
2022-12-23T23:43:50.597Z,99770.25
2022-12-23T23:46:17.285Z,99758.78
2022-12-23T23:48:43.904Z,99752.38
2022-12-23T23:51:10.680Z,99744.41
2022-12-23T23:53:37.252Z,99739.72
2022-12-23T23:56:06.474Z,99752.06
2022-12-23T23:58:34.732Z,99755.56
